sensor_id;sensor_type;location;lat;lon;timestamp;temperature;humidity
4215;DHT22;2121;48.062;7.850;2024-01-06T00:02:00;6.60;99.90
4215;DHT22;2121;48.062;7.850;2024-01-06T00:04:25;6.50;99.90
4215;DHT22;2121;48.062;7.850;2024-01-06T00:06:51;6.30;99.90
4215;DHT22;2121;48.062;7.850;2024-01-06T00:09:17;6.30;99.90
4215;DHT22;2121;48.062;7.850;2024-01-06T00:11:42;6.10;99.90
4215;DHT22;2121;48.062;7.850;2024-01-06T00:14:08;6.00;99.90
4215;DHT22;2121;48.062;7.850;2024-01-06T00:16:34;6.00;99.90
4215;DHT22;2121;48.062;7.850;2024-01-06T00:18:59;5.90;99.90
4215;DHT22;2121;48.062;7.850;2024-01-06T00:21:26;5.90;99.90
4215;DHT22;2121;48.062;7.850;2024-01-06T00:23:51;5.90;99.90
4215;DHT22;2121;48.062;7.850;2024-01-06T00:26:17;6.00;99.90
4215;DHT22;2121;48.062;7.850;2024-01-06T00:28:43;6.10;99.90
4215;DHT22;2121;48.062;7.850;2024-01-06T00:31:09;6.10;99.90
4215;DHT22;2121;48.062;7.850;2024-01-06T00:33:34;6.10;99.90
4215;DHT22;2121;48.062;7.850;2024-01-06T00:36:00;5.90;99.90
4215;DHT22;2121;48.062;7.850;2024-01-06T00:38:26;5.90;99.90
4215;DHT22;2121;48.062;7.850;2024-01-06T00:40:52;5.90;99.90
4215;DHT22;2121;48.062;7.850;2024-01-06T00:43:17;6.00;99.90
4215;DHT22;2121;48.062;7.850;2024-01-06T00:45:43;6.00;99.90
4215;DHT22;2121;48.062;7.850;2024-01-06T00:48:09;5.90;99.90
4215;DHT22;2121;48.062;7.850;2024-01-06T00:50:34;6.00;99.90
4215;DHT22;2121;48.062;7.850;2024-01-06T00:53:00;6.10;99.90
4215;DHT22;2121;48.062;7.850;2024-01-06T00:55:26;6.30;99.90
4215;DHT22;2121;48.062;7.850;2024-01-06T00:57:51;6.30;99.90
4215;DHT22;2121;48.062;7.850;2024-01-06T01:00:17;6.20;99.90
4215;DHT22;2121;48.062;7.850;2024-01-06T01:02:43;6.20;99.90
4215;DHT22;2121;48.062;7.850;2024-01-06T01:05:09;6.30;99.90
4215;DHT22;2121;48.062;7.850;2024-01-06T01:07:35;6.30;99.90
4215;DHT22;2121;48.062;7.850;2024-01-06T01:10:01;6.30;99.90
4215;DHT22;2121;48.062;7.850;2024-01-06T01:12:27;6.20;99.90
4215;DHT22;2121;48.062;7.850;2024-01-06T01:14:53;6.20;99.90
4215;DHT22;2121;48.062;7.850;2024-01-06T01:17:19;6.20;99.90
4215;DHT22;2121;48.062;7.850;2024-01-06T01:19:45;6.10;99.90
4215;DHT22;2121;48.062;7.850;2024-01-06T01:22:11;6.10;99.90
4215;DHT22;2121;48.062;7.850;2024-01-06T01:24:37;6.10;99.90
4215;DHT22;2121;48.062;7.850;2024-01-06T01:27:03;6.10;99.90
4215;DHT22;2121;48.062;7.850;2024-01-06T01:29:29;6.10;99.90
4215;DHT22;2121;48.062;7.850;2024-01-06T01:31:55;6.10;99.90
4215;DHT22;2121;48.062;7.850;2024-01-06T01:34:20;6.20;99.90
4215;DHT22;2121;48.062;7.850;2024-01-06T01:36:46;6.20;99.90
4215;DHT22;2121;48.062;7.850;2024-01-06T01:39:12;6.20;99.90
4215;DHT22;2121;48.062;7.850;2024-01-06T01:41:38;6.20;99.90
4215;DHT22;2121;48.062;7.850;2024-01-06T01:44:04;6.20;99.90
4215;DHT22;2121;48.062;7.850;2024-01-06T01:46:30;6.30;99.90
4215;DHT22;2121;48.062;7.850;2024-01-06T01:48:59;6.30;99.90
4215;DHT22;2121;48.062;7.850;2024-01-06T01:51:28;6.20;99.90
4215;DHT22;2121;48.062;7.850;2024-01-06T01:54:02;6.20;99.90
4215;DHT22;2121;48.062;7.850;2024-01-06T01:56:30;6.10;99.90
4215;DHT22;2121;48.062;7.850;2024-01-06T01:59:09;6.20;99.90
4215;DHT22;2121;48.062;7.850;2024-01-06T02:01:37;6.20;99.90
4215;DHT22;2121;48.062;7.850;2024-01-06T02:04:03;6.20;99.90
4215;DHT22;2121;48.062;7.850;2024-01-06T02:06:29;6.10;99.90
4215;DHT22;2121;48.062;7.850;2024-01-06T02:08:55;6.00;99.90
4215;DHT22;2121;48.062;7.850;2024-01-06T02:11:20;6.10;99.90
4215;DHT22;2121;48.062;7.850;2024-01-06T02:13:46;5.80;99.90
4215;DHT22;2121;48.062;7.850;2024-01-06T02:16:12;5.70;99.90
4215;DHT22;2121;48.062;7.850;2024-01-06T02:18:37;5.70;99.90
4215;DHT22;2121;48.062;7.850;2024-01-06T02:21:03;5.60;99.90
4215;DHT22;2121;48.062;7.850;2024-01-06T02:23:34;5.60;99.90
4215;DHT22;2121;48.062;7.850;2024-01-06T02:26:01;5.50;99.90
4215;DHT22;2121;48.062;7.850;2024-01-06T02:28:28;5.50;99.90
4215;DHT22;2121;48.062;7.850;2024-01-06T02:30:53;5.70;99.90
4215;DHT22;2121;48.062;7.850;2024-01-06T02:33:19;5.80;99.90
4215;DHT22;2121;48.062;7.850;2024-01-06T02:35:48;6.00;99.90
4215;DHT22;2121;48.062;7.850;2024-01-06T02:38:13;5.80;99.90
4215;DHT22;2121;48.062;7.850;2024-01-06T02:40:39;5.70;99.90
4215;DHT22;2121;48.062;7.850;2024-01-06T02:43:05;5.60;99.90
4215;DHT22;2121;48.062;7.850;2024-01-06T02:45:31;5.50;99.90
4215;DHT22;2121;48.062;7.850;2024-01-06T02:47:56;5.50;99.90
4215;DHT22;2121;48.062;7.850;2024-01-06T02:50:22;5.40;99.90
4215;DHT22;2121;48.062;7.850;2024-01-06T02:52:48;5.60;99.90
4215;DHT22;2121;48.062;7.850;2024-01-06T02:55:14;5.40;99.90
4215;DHT22;2121;48.062;7.850;2024-01-06T02:57:40;5.40;99.90
4215;DHT22;2121;48.062;7.850;2024-01-06T03:00:07;5.30;99.90
4215;DHT22;2121;48.062;7.850;2024-01-06T03:02:33;5.30;99.90
4215;DHT22;2121;48.062;7.850;2024-01-06T03:05:01;5.30;99.90
4215;DHT22;2121;48.062;7.850;2024-01-06T03:07:27;5.20;99.90
4215;DHT22;2121;48.062;7.850;2024-01-06T03:09:53;5.30;99.90
4215;DHT22;2121;48.062;7.850;2024-01-06T03:12:19;5.30;99.90
4215;DHT22;2121;48.062;7.850;2024-01-06T03:14:44;5.20;99.90
4215;DHT22;2121;48.062;7.850;2024-01-06T03:17:10;5.30;99.90
4215;DHT22;2121;48.062;7.850;2024-01-06T03:19:36;5.20;99.90
4215;DHT22;2121;48.062;7.850;2024-01-06T03:22:02;5.20;99.90
4215;DHT22;2121;48.062;7.850;2024-01-06T03:24:28;5.30;99.90
4215;DHT22;2121;48.062;7.850;2024-01-06T03:26:53;5.20;99.90
4215;DHT22;2121;48.062;7.850;2024-01-06T03:29:19;5.10;99.90
4215;DHT22;2121;48.062;7.850;2024-01-06T03:31:45;5.10;99.90
4215;DHT22;2121;48.062;7.850;2024-01-06T03:34:11;5.00;99.90
4215;DHT22;2121;48.062;7.850;2024-01-06T03:36:37;5.00;99.90
4215;DHT22;2121;48.062;7.850;2024-01-06T03:39:04;5.00;99.90
4215;DHT22;2121;48.062;7.850;2024-01-06T03:41:30;5.00;99.90
4215;DHT22;2121;48.062;7.850;2024-01-06T03:43:55;5.00;99.90
4215;DHT22;2121;48.062;7.850;2024-01-06T03:46:22;4.90;99.90
4215;DHT22;2121;48.062;7.850;2024-01-06T03:48:48;4.90;99.90
4215;DHT22;2121;48.062;7.850;2024-01-06T03:51:14;5.00;99.90
4215;DHT22;2121;48.062;7.850;2024-01-06T03:53:40;5.10;99.90
4215;DHT22;2121;48.062;7.850;2024-01-06T03:56:06;5.20;99.90
4215;DHT22;2121;48.062;7.850;2024-01-06T03:58:32;5.30;99.90
4215;DHT22;2121;48.062;7.850;2024-01-06T04:00:58;5.40;99.90
4215;DHT22;2121;48.062;7.850;2024-01-06T04:03:24;5.20;99.90
4215;DHT22;2121;48.062;7.850;2024-01-06T04:05:50;5.00;99.90
4215;DHT22;2121;48.062;7.850;2024-01-06T04:08:15;4.90;99.90
4215;DHT22;2121;48.062;7.850;2024-01-06T04:10:42;4.80;99.90
4215;DHT22;2121;48.062;7.850;2024-01-06T04:13:09;4.80;99.90
4215;DHT22;2121;48.062;7.850;2024-01-06T04:15:35;4.70;99.90
4215;DHT22;2121;48.062;7.850;2024-01-06T04:18:02;4.70;99.90
4215;DHT22;2121;48.062;7.850;2024-01-06T04:20:29;4.70;99.90
4215;DHT22;2121;48.062;7.850;2024-01-06T04:22:55;4.70;99.90
4215;DHT22;2121;48.062;7.850;2024-01-06T04:25:21;4.80;99.90
4215;DHT22;2121;48.062;7.850;2024-01-06T04:27:47;4.70;99.90
4215;DHT22;2121;48.062;7.850;2024-01-06T04:30:14;4.80;99.90
4215;DHT22;2121;48.062;7.850;2024-01-06T04:32:40;4.90;99.90
4215;DHT22;2121;48.062;7.850;2024-01-06T04:35:07;5.00;99.90
4215;DHT22;2121;48.062;7.850;2024-01-06T04:37:33;4.90;99.90
4215;DHT22;2121;48.062;7.850;2024-01-06T04:39:59;4.90;99.90
4215;DHT22;2121;48.062;7.850;2024-01-06T04:42:25;5.00;99.90
4215;DHT22;2121;48.062;7.850;2024-01-06T04:44:50;5.10;99.90
4215;DHT22;2121;48.062;7.850;2024-01-06T04:47:16;5.10;99.90
4215;DHT22;2121;48.062;7.850;2024-01-06T04:49:43;5.20;99.90
4215;DHT22;2121;48.062;7.850;2024-01-06T04:52:09;5.30;99.90
4215;DHT22;2121;48.062;7.850;2024-01-06T04:54:35;5.40;99.90
4215;DHT22;2121;48.062;7.850;2024-01-06T04:57:01;5.30;99.90
4215;DHT22;2121;48.062;7.850;2024-01-06T04:59:27;5.20;99.90
4215;DHT22;2121;48.062;7.850;2024-01-06T05:01:54;5.20;99.90
4215;DHT22;2121;48.062;7.850;2024-01-06T05:04:20;5.10;99.90
4215;DHT22;2121;48.062;7.850;2024-01-06T05:06:45;5.20;99.90
4215;DHT22;2121;48.062;7.850;2024-01-06T05:09:11;5.30;99.90
4215;DHT22;2121;48.062;7.850;2024-01-06T05:11:37;5.30;99.90
4215;DHT22;2121;48.062;7.850;2024-01-06T05:14:02;5.20;99.90
4215;DHT22;2121;48.062;7.850;2024-01-06T05:16:28;5.30;99.90
4215;DHT22;2121;48.062;7.850;2024-01-06T05:18:54;5.30;99.90
4215;DHT22;2121;48.062;7.850;2024-01-06T05:21:20;5.30;99.90
4215;DHT22;2121;48.062;7.850;2024-01-06T05:23:46;5.40;99.90
4215;DHT22;2121;48.062;7.850;2024-01-06T05:26:11;5.40;99.90
4215;DHT22;2121;48.062;7.850;2024-01-06T05:28:39;5.30;99.90
4215;DHT22;2121;48.062;7.850;2024-01-06T05:31:05;5.30;99.90
4215;DHT22;2121;48.062;7.850;2024-01-06T05:33:31;5.30;99.90
4215;DHT22;2121;48.062;7.850;2024-01-06T05:35:57;5.20;99.90
4215;DHT22;2121;48.062;7.850;2024-01-06T05:38:23;5.30;99.90
4215;DHT22;2121;48.062;7.850;2024-01-06T05:40:48;5.20;99.90
4215;DHT22;2121;48.062;7.850;2024-01-06T05:43:14;5.20;99.90
4215;DHT22;2121;48.062;7.850;2024-01-06T05:45:40;5.20;99.90
4215;DHT22;2121;48.062;7.850;2024-01-06T05:48:09;5.20;99.90
4215;DHT22;2121;48.062;7.850;2024-01-06T05:50:35;5.20;99.90
4215;DHT22;2121;48.062;7.850;2024-01-06T05:53:02;5.20;99.90
4215;DHT22;2121;48.062;7.850;2024-01-06T05:55:28;5.20;99.90
4215;DHT22;2121;48.062;7.850;2024-01-06T05:57:54;5.30;99.90
4215;DHT22;2121;48.062;7.850;2024-01-06T06:00:20;5.40;99.90
4215;DHT22;2121;48.062;7.850;2024-01-06T06:02:46;5.40;99.90
4215;DHT22;2121;48.062;7.850;2024-01-06T06:05:11;5.50;99.90
4215;DHT22;2121;48.062;7.850;2024-01-06T06:07:38;5.50;99.90
4215;DHT22;2121;48.062;7.850;2024-01-06T06:10:09;5.50;99.90
4215;DHT22;2121;48.062;7.850;2024-01-06T06:12:36;5.40;99.90
4215;DHT22;2121;48.062;7.850;2024-01-06T06:15:03;5.30;99.90
4215;DHT22;2121;48.062;7.850;2024-01-06T06:17:30;5.20;99.90
4215;DHT22;2121;48.062;7.850;2024-01-06T06:20:00;5.30;99.90
4215;DHT22;2121;48.062;7.850;2024-01-06T06:22:26;5.20;99.90
4215;DHT22;2121;48.062;7.850;2024-01-06T06:25:01;5.20;99.90
4215;DHT22;2121;48.062;7.850;2024-01-06T06:27:27;5.10;99.90
4215;DHT22;2121;48.062;7.850;2024-01-06T06:29:54;5.30;99.90
4215;DHT22;2121;48.062;7.850;2024-01-06T06:32:21;5.10;99.90
4215;DHT22;2121;48.062;7.850;2024-01-06T06:34:47;5.30;99.90
4215;DHT22;2121;48.062;7.850;2024-01-06T06:37:13;5.40;99.90
4215;DHT22;2121;48.062;7.850;2024-01-06T06:39:38;5.30;99.90
4215;DHT22;2121;48.062;7.850;2024-01-06T06:42:04;5.30;99.90
4215;DHT22;2121;48.062;7.850;2024-01-06T06:44:30;5.30;99.90
4215;DHT22;2121;48.062;7.850;2024-01-06T06:46:56;5.30;99.90
4215;DHT22;2121;48.062;7.850;2024-01-06T06:49:22;5.30;99.90
4215;DHT22;2121;48.062;7.850;2024-01-06T06:51:48;5.30;99.90
4215;DHT22;2121;48.062;7.850;2024-01-06T06:54:15;5.20;99.90
4215;DHT22;2121;48.062;7.850;2024-01-06T06:56:42;5.20;99.90
4215;DHT22;2121;48.062;7.850;2024-01-06T06:59:07;5.20;99.90
4215;DHT22;2121;48.062;7.850;2024-01-06T07:01:33;5.20;99.90
4215;DHT22;2121;48.062;7.850;2024-01-06T07:03:59;5.20;99.90
4215;DHT22;2121;48.062;7.850;2024-01-06T07:06:25;5.30;99.90
4215;DHT22;2121;48.062;7.850;2024-01-06T07:08:51;5.30;99.90
4215;DHT22;2121;48.062;7.850;2024-01-06T07:11:16;5.30;99.90
4215;DHT22;2121;48.062;7.850;2024-01-06T07:13:44;5.20;99.90
4215;DHT22;2121;48.062;7.850;2024-01-06T07:16:09;5.20;99.90
4215;DHT22;2121;48.062;7.850;2024-01-06T07:18:37;5.20;99.90
4215;DHT22;2121;48.062;7.850;2024-01-06T07:21:05;5.20;99.90
4215;DHT22;2121;48.062;7.850;2024-01-06T07:23:34;5.20;99.90
4215;DHT22;2121;48.062;7.850;2024-01-06T07:26:00;5.20;99.90
4215;DHT22;2121;48.062;7.850;2024-01-06T07:28:26;5.20;99.90
4215;DHT22;2121;48.062;7.850;2024-01-06T07:30:52;5.20;99.90
4215;DHT22;2121;48.062;7.850;2024-01-06T07:33:18;5.20;99.90
4215;DHT22;2121;48.062;7.850;2024-01-06T07:35:44;5.20;99.90
4215;DHT22;2121;48.062;7.850;2024-01-06T07:38:10;5.30;99.90
4215;DHT22;2121;48.062;7.850;2024-01-06T07:40:36;5.30;99.90
4215;DHT22;2121;48.062;7.850;2024-01-06T07:43:02;5.30;99.90
4215;DHT22;2121;48.062;7.850;2024-01-06T07:45:28;5.30;99.90
4215;DHT22;2121;48.062;7.850;2024-01-06T07:47:54;5.50;99.90
4215;DHT22;2121;48.062;7.850;2024-01-06T07:50:19;5.30;99.90
4215;DHT22;2121;48.062;7.850;2024-01-06T07:52:45;5.30;99.90
4215;DHT22;2121;48.062;7.850;2024-01-06T07:55:11;5.30;99.90
4215;DHT22;2121;48.062;7.850;2024-01-06T07:57:36;5.30;99.90
4215;DHT22;2121;48.062;7.850;2024-01-06T08:00:02;5.40;99.90
4215;DHT22;2121;48.062;7.850;2024-01-06T08:02:28;5.50;99.90
4215;DHT22;2121;48.062;7.850;2024-01-06T08:04:54;5.50;99.90
4215;DHT22;2121;48.062;7.850;2024-01-06T08:07:21;5.50;99.90
4215;DHT22;2121;48.062;7.850;2024-01-06T08:09:47;5.40;99.90
4215;DHT22;2121;48.062;7.850;2024-01-06T08:12:15;5.50;99.90
4215;DHT22;2121;48.062;7.850;2024-01-06T08:14:41;5.50;99.90
4215;DHT22;2121;48.062;7.850;2024-01-06T08:17:06;5.40;99.90
4215;DHT22;2121;48.062;7.850;2024-01-06T08:19:32;5.30;99.90
4215;DHT22;2121;48.062;7.850;2024-01-06T08:21:59;5.30;99.90
4215;DHT22;2121;48.062;7.850;2024-01-06T08:24:24;5.20;99.90
4215;DHT22;2121;48.062;7.850;2024-01-06T08:26:50;5.30;99.90
4215;DHT22;2121;48.062;7.850;2024-01-06T08:29:16;5.40;99.90
4215;DHT22;2121;48.062;7.850;2024-01-06T08:31:45;5.40;99.90
4215;DHT22;2121;48.062;7.850;2024-01-06T08:34:10;5.60;99.90
4215;DHT22;2121;48.062;7.850;2024-01-06T08:36:36;5.80;99.90
4215;DHT22;2121;48.062;7.850;2024-01-06T08:39:02;6.00;99.90
4215;DHT22;2121;48.062;7.850;2024-01-06T08:41:28;6.10;99.90
4215;DHT22;2121;48.062;7.850;2024-01-06T08:43:54;6.00;99.90
4215;DHT22;2121;48.062;7.850;2024-01-06T08:46:20;6.00;99.90
4215;DHT22;2121;48.062;7.850;2024-01-06T08:48:45;5.90;99.90
4215;DHT22;2121;48.062;7.850;2024-01-06T08:51:11;5.90;99.90
4215;DHT22;2121;48.062;7.850;2024-01-06T08:53:37;6.10;99.90
4215;DHT22;2121;48.062;7.850;2024-01-06T08:56:03;6.40;99.90
4215;DHT22;2121;48.062;7.850;2024-01-06T08:58:29;6.60;99.90
4215;DHT22;2121;48.062;7.850;2024-01-06T09:00:54;6.70;99.90
4215;DHT22;2121;48.062;7.850;2024-01-06T09:03:20;6.70;99.90
4215;DHT22;2121;48.062;7.850;2024-01-06T09:05:52;6.80;99.90
4215;DHT22;2121;48.062;7.850;2024-01-06T09:08:18;6.90;99.90
4215;DHT22;2121;48.062;7.850;2024-01-06T09:10:44;6.90;99.90
4215;DHT22;2121;48.062;7.850;2024-01-06T09:13:10;6.60;99.90
4215;DHT22;2121;48.062;7.850;2024-01-06T09:15:35;6.50;99.90
4215;DHT22;2121;48.062;7.850;2024-01-06T09:18:01;6.50;99.90
4215;DHT22;2121;48.062;7.850;2024-01-06T09:20:28;6.50;99.90
4215;DHT22;2121;48.062;7.850;2024-01-06T09:22:54;6.40;99.90
4215;DHT22;2121;48.062;7.850;2024-01-06T09:25:20;6.60;99.90
4215;DHT22;2121;48.062;7.850;2024-01-06T09:27:48;6.60;99.90
4215;DHT22;2121;48.062;7.850;2024-01-06T09:30:14;6.40;99.90
4215;DHT22;2121;48.062;7.850;2024-01-06T09:32:40;6.50;99.90
4215;DHT22;2121;48.062;7.850;2024-01-06T09:35:05;6.60;99.90
4215;DHT22;2121;48.062;7.850;2024-01-06T09:37:31;6.80;99.90
4215;DHT22;2121;48.062;7.850;2024-01-06T09:39:57;6.90;99.90
4215;DHT22;2121;48.062;7.850;2024-01-06T09:42:23;7.00;99.90
4215;DHT22;2121;48.062;7.850;2024-01-06T09:44:48;7.20;99.90
4215;DHT22;2121;48.062;7.850;2024-01-06T09:47:16;7.50;99.90
4215;DHT22;2121;48.062;7.850;2024-01-06T09:49:49;7.50;99.90
4215;DHT22;2121;48.062;7.850;2024-01-06T09:52:19;7.40;99.90
4215;DHT22;2121;48.062;7.850;2024-01-06T09:54:52;7.40;99.90
4215;DHT22;2121;48.062;7.850;2024-01-06T09:57:20;7.60;99.90
4215;DHT22;2121;48.062;7.850;2024-01-06T09:59:47;7.80;99.90
4215;DHT22;2121;48.062;7.850;2024-01-06T10:02:15;7.80;99.90
4215;DHT22;2121;48.062;7.850;2024-01-06T10:04:44;7.80;99.90
4215;DHT22;2121;48.062;7.850;2024-01-06T10:07:11;7.80;99.90
4215;DHT22;2121;48.062;7.850;2024-01-06T10:09:41;7.80;99.90
4215;DHT22;2121;48.062;7.850;2024-01-06T10:12:08;7.60;99.90
4215;DHT22;2121;48.062;7.850;2024-01-06T10:14:35;7.70;99.90
4215;DHT22;2121;48.062;7.850;2024-01-06T10:17:01;7.70;99.90
4215;DHT22;2121;48.062;7.850;2024-01-06T10:19:27;7.80;99.90
4215;DHT22;2121;48.062;7.850;2024-01-06T10:21:54;7.70;99.90
4215;DHT22;2121;48.062;7.850;2024-01-06T10:24:20;7.70;99.90
4215;DHT22;2121;48.062;7.850;2024-01-06T10:26:46;7.90;99.90
4215;DHT22;2121;48.062;7.850;2024-01-06T10:29:13;8.10;99.90
4215;DHT22;2121;48.062;7.850;2024-01-06T10:31:39;8.20;99.90
4215;DHT22;2121;48.062;7.850;2024-01-06T10:34:05;7.90;99.90
4215;DHT22;2121;48.062;7.850;2024-01-06T10:36:31;8.00;99.90
4215;DHT22;2121;48.062;7.850;2024-01-06T10:38:57;8.00;99.90
4215;DHT22;2121;48.062;7.850;2024-01-06T10:41:24;7.80;99.90
4215;DHT22;2121;48.062;7.850;2024-01-06T10:43:51;7.70;99.90
4215;DHT22;2121;48.062;7.850;2024-01-06T10:46:19;7.60;99.90
4215;DHT22;2121;48.062;7.850;2024-01-06T10:48:46;7.20;99.90
4215;DHT22;2121;48.062;7.850;2024-01-06T10:51:13;6.90;99.90
4215;DHT22;2121;48.062;7.850;2024-01-06T10:53:42;6.80;99.90
4215;DHT22;2121;48.062;7.850;2024-01-06T10:56:09;6.80;99.90
4215;DHT22;2121;48.062;7.850;2024-01-06T10:58:44;6.80;99.90
4215;DHT22;2121;48.062;7.850;2024-01-06T11:01:13;6.80;99.90
4215;DHT22;2121;48.062;7.850;2024-01-06T11:03:39;6.90;99.90
4215;DHT22;2121;48.062;7.850;2024-01-06T11:06:06;6.90;99.90
4215;DHT22;2121;48.062;7.850;2024-01-06T11:08:44;7.00;99.90
4215;DHT22;2121;48.062;7.850;2024-01-06T11:11:18;7.10;99.90
4215;DHT22;2121;48.062;7.850;2024-01-06T11:13:46;7.20;99.90
4215;DHT22;2121;48.062;7.850;2024-01-06T11:16:36;7.40;99.90
4215;DHT22;2121;48.062;7.850;2024-01-06T11:19:03;7.90;99.90
4215;DHT22;2121;48.062;7.850;2024-01-06T11:21:33;8.20;99.90
4215;DHT22;2121;48.062;7.850;2024-01-06T11:24:18;8.20;99.90
4215;DHT22;2121;48.062;7.850;2024-01-06T11:26:51;8.30;99.90
4215;DHT22;2121;48.062;7.850;2024-01-06T11:29:20;8.00;99.90
4215;DHT22;2121;48.062;7.850;2024-01-06T11:34:53;8.00;99.90
4215;DHT22;2121;48.062;7.850;2024-01-06T11:45:36;7.20;99.90
4215;DHT22;2121;48.062;7.850;2024-01-06T11:48:04;7.10;99.90
4215;DHT22;2121;48.062;7.850;2024-01-06T11:50:34;7.10;99.90
4215;DHT22;2121;48.062;7.850;2024-01-06T11:53:02;7.10;99.90
4215;DHT22;2121;48.062;7.850;2024-01-06T11:55:29;7.10;99.90
4215;DHT22;2121;48.062;7.850;2024-01-06T11:58:00;7.00;99.90
4215;DHT22;2121;48.062;7.850;2024-01-06T12:00:32;7.00;99.90
4215;DHT22;2121;48.062;7.850;2024-01-06T12:02:59;7.10;99.90
4215;DHT22;2121;48.062;7.850;2024-01-06T12:05:26;7.00;99.90
4215;DHT22;2121;48.062;7.850;2024-01-06T12:08:02;6.90;99.90
4215;DHT22;2121;48.062;7.850;2024-01-06T12:10:32;6.90;99.90
4215;DHT22;2121;48.062;7.850;2024-01-06T12:15:27;7.00;99.90
4215;DHT22;2121;48.062;7.850;2024-01-06T12:17:55;6.90;99.90
4215;DHT22;2121;48.062;7.850;2024-01-06T12:20:22;7.00;99.90
4215;DHT22;2121;48.062;7.850;2024-01-06T12:22:52;7.10;99.90
4215;DHT22;2121;48.062;7.850;2024-01-06T12:25:20;7.00;99.90
4215;DHT22;2121;48.062;7.850;2024-01-06T12:27:51;6.90;99.90
4215;DHT22;2121;48.062;7.850;2024-01-06T12:30:20;6.90;99.90
4215;DHT22;2121;48.062;7.850;2024-01-06T12:32:48;6.70;99.90
4215;DHT22;2121;48.062;7.850;2024-01-06T12:35:15;7.00;99.90
4215;DHT22;2121;48.062;7.850;2024-01-06T12:37:42;7.00;99.90
4215;DHT22;2121;48.062;7.850;2024-01-06T12:40:17;6.90;99.90
4215;DHT22;2121;48.062;7.850;2024-01-06T12:42:45;7.00;99.90
4215;DHT22;2121;48.062;7.850;2024-01-06T12:45:11;7.00;99.90
4215;DHT22;2121;48.062;7.850;2024-01-06T12:47:38;7.10;99.90
4215;DHT22;2121;48.062;7.850;2024-01-06T12:50:04;6.90;99.90
4215;DHT22;2121;48.062;7.850;2024-01-06T12:52:30;7.00;99.90
4215;DHT22;2121;48.062;7.850;2024-01-06T12:54:56;7.20;99.90
4215;DHT22;2121;48.062;7.850;2024-01-06T12:57:22;7.10;99.90
4215;DHT22;2121;48.062;7.850;2024-01-06T12:59:48;7.10;99.90
4215;DHT22;2121;48.062;7.850;2024-01-06T13:02:14;7.10;99.90
4215;DHT22;2121;48.062;7.850;2024-01-06T13:04:40;7.10;99.90
4215;DHT22;2121;48.062;7.850;2024-01-06T13:07:05;7.00;99.90
4215;DHT22;2121;48.062;7.850;2024-01-06T13:09:31;6.90;99.90
4215;DHT22;2121;48.062;7.850;2024-01-06T13:11:58;6.80;99.90
4215;DHT22;2121;48.062;7.850;2024-01-06T13:14:26;6.80;99.90
4215;DHT22;2121;48.062;7.850;2024-01-06T13:16:52;6.80;99.90
4215;DHT22;2121;48.062;7.850;2024-01-06T13:19:18;6.80;99.90
4215;DHT22;2121;48.062;7.850;2024-01-06T13:21:45;6.70;99.90
4215;DHT22;2121;48.062;7.850;2024-01-06T13:24:11;6.70;99.90
4215;DHT22;2121;48.062;7.850;2024-01-06T13:26:37;6.60;99.90
4215;DHT22;2121;48.062;7.850;2024-01-06T13:29:03;6.60;99.90
4215;DHT22;2121;48.062;7.850;2024-01-06T13:31:29;6.60;99.90
4215;DHT22;2121;48.062;7.850;2024-01-06T13:33:56;6.60;99.90
4215;DHT22;2121;48.062;7.850;2024-01-06T13:36:22;6.50;99.90
4215;DHT22;2121;48.062;7.850;2024-01-06T13:38:48;6.50;99.90
4215;DHT22;2121;48.062;7.850;2024-01-06T13:41:14;6.40;99.90
4215;DHT22;2121;48.062;7.850;2024-01-06T13:43:41;6.40;99.90
4215;DHT22;2121;48.062;7.850;2024-01-06T13:46:07;6.40;99.90
4215;DHT22;2121;48.062;7.850;2024-01-06T13:48:32;6.30;99.90
4215;DHT22;2121;48.062;7.850;2024-01-06T13:50:59;6.30;99.90
4215;DHT22;2121;48.062;7.850;2024-01-06T13:53:25;6.30;99.90
4215;DHT22;2121;48.062;7.850;2024-01-06T13:55:50;6.20;99.90
4215;DHT22;2121;48.062;7.850;2024-01-06T13:58:16;6.30;99.90
4215;DHT22;2121;48.062;7.850;2024-01-06T14:00:44;6.30;99.90
4215;DHT22;2121;48.062;7.850;2024-01-06T14:03:09;6.40;99.90
4215;DHT22;2121;48.062;7.850;2024-01-06T14:05:36;6.40;99.90
4215;DHT22;2121;48.062;7.850;2024-01-06T14:08:03;6.30;99.90
4215;DHT22;2121;48.062;7.850;2024-01-06T14:10:29;6.30;99.90
4215;DHT22;2121;48.062;7.850;2024-01-06T14:12:57;6.40;99.90
4215;DHT22;2121;48.062;7.850;2024-01-06T14:15:22;6.40;99.90
4215;DHT22;2121;48.062;7.850;2024-01-06T14:17:48;6.30;99.90
4215;DHT22;2121;48.062;7.850;2024-01-06T14:20:16;6.30;99.90
4215;DHT22;2121;48.062;7.850;2024-01-06T14:22:46;6.30;99.90
4215;DHT22;2121;48.062;7.850;2024-01-06T14:25:15;6.30;99.90
4215;DHT22;2121;48.062;7.850;2024-01-06T14:27:44;6.30;99.90
4215;DHT22;2121;48.062;7.850;2024-01-06T14:30:10;6.30;99.90
4215;DHT22;2121;48.062;7.850;2024-01-06T14:32:36;6.30;99.90
4215;DHT22;2121;48.062;7.850;2024-01-06T14:35:06;6.20;99.90
4215;DHT22;2121;48.062;7.850;2024-01-06T14:37:32;6.30;99.90
4215;DHT22;2121;48.062;7.850;2024-01-06T14:39:58;6.20;99.90
4215;DHT22;2121;48.062;7.850;2024-01-06T14:42:24;6.20;99.90
4215;DHT22;2121;48.062;7.850;2024-01-06T14:44:50;6.10;99.90
4215;DHT22;2121;48.062;7.850;2024-01-06T14:47:16;6.00;99.90
4215;DHT22;2121;48.062;7.850;2024-01-06T14:49:42;6.00;99.90
4215;DHT22;2121;48.062;7.850;2024-01-06T14:52:07;6.00;99.90
4215;DHT22;2121;48.062;7.850;2024-01-06T14:54:34;6.00;99.90
4215;DHT22;2121;48.062;7.850;2024-01-06T14:57:01;6.00;99.90
4215;DHT22;2121;48.062;7.850;2024-01-06T14:59:26;5.90;99.90
4215;DHT22;2121;48.062;7.850;2024-01-06T15:01:52;6.00;99.90
4215;DHT22;2121;48.062;7.850;2024-01-06T15:04:18;5.90;99.90
4215;DHT22;2121;48.062;7.850;2024-01-06T15:06:45;5.90;99.90
4215;DHT22;2121;48.062;7.850;2024-01-06T15:09:11;5.90;99.90
4215;DHT22;2121;48.062;7.850;2024-01-06T15:11:37;6.00;99.90
4215;DHT22;2121;48.062;7.850;2024-01-06T15:14:02;5.90;99.90
4215;DHT22;2121;48.062;7.850;2024-01-06T15:16:30;5.90;99.90
4215;DHT22;2121;48.062;7.850;2024-01-06T15:18:57;5.90;99.90
4215;DHT22;2121;48.062;7.850;2024-01-06T15:21:25;5.90;99.90
4215;DHT22;2121;48.062;7.850;2024-01-06T15:23:52;5.90;99.90
4215;DHT22;2121;48.062;7.850;2024-01-06T15:26:24;5.80;99.90
4215;DHT22;2121;48.062;7.850;2024-01-06T15:28:50;5.80;99.90
4215;DHT22;2121;48.062;7.850;2024-01-06T15:31:16;5.80;99.90
4215;DHT22;2121;48.062;7.850;2024-01-06T15:33:42;5.80;99.90
4215;DHT22;2121;48.062;7.850;2024-01-06T15:36:08;5.80;99.90
4215;DHT22;2121;48.062;7.850;2024-01-06T15:38:34;5.70;99.90
4215;DHT22;2121;48.062;7.850;2024-01-06T15:41:00;5.70;99.90
4215;DHT22;2121;48.062;7.850;2024-01-06T15:43:26;5.70;99.90
4215;DHT22;2121;48.062;7.850;2024-01-06T15:45:52;5.70;99.90
4215;DHT22;2121;48.062;7.850;2024-01-06T15:48:19;5.60;99.90
4215;DHT22;2121;48.062;7.850;2024-01-06T15:50:45;5.60;99.90
4215;DHT22;2121;48.062;7.850;2024-01-06T15:53:11;5.60;99.90
4215;DHT22;2121;48.062;7.850;2024-01-06T15:55:40;5.60;99.90
4215;DHT22;2121;48.062;7.850;2024-01-06T15:58:06;5.70;99.90
4215;DHT22;2121;48.062;7.850;2024-01-06T16:00:32;5.60;99.90
4215;DHT22;2121;48.062;7.850;2024-01-06T16:02:59;5.60;99.90
4215;DHT22;2121;48.062;7.850;2024-01-06T16:05:25;5.60;99.90
4215;DHT22;2121;48.062;7.850;2024-01-06T16:07:52;5.60;99.90
4215;DHT22;2121;48.062;7.850;2024-01-06T16:10:20;5.50;99.90
4215;DHT22;2121;48.062;7.850;2024-01-06T16:12:47;5.60;99.90
4215;DHT22;2121;48.062;7.850;2024-01-06T16:15:14;5.60;99.90
4215;DHT22;2121;48.062;7.850;2024-01-06T16:17:40;5.50;99.90
4215;DHT22;2121;48.062;7.850;2024-01-06T16:20:06;5.50;99.90
4215;DHT22;2121;48.062;7.850;2024-01-06T16:22:33;5.50;99.90
4215;DHT22;2121;48.062;7.850;2024-01-06T16:24:58;5.50;99.90
4215;DHT22;2121;48.062;7.850;2024-01-06T16:27:24;5.60;99.90